PHVOP EHLE-EHRD
Flight info
| Callsign | PHVOP |
|---|---|
| Flight time | 0h 33m |
| Altitude | 1500 |
| Route | EHLE EHRD |
| Aircraft | PA28/L-V/N |
Departure
| Time | 2026-05-01 14:33 |
|---|---|
| Airport | Lelystad Airport (EHLE) |
Arrival
| Time | 2026-05-01 15:06 |
|---|---|
| Airport | Rotterdam The Hague Airport (EHRD) |
| Time | Latitude | Longitude | Altitude | Speed | Heading |
|---|---|---|---|---|---|
| 2026-05-01 14:28 | 52.45503 | 5.52264 | -9 ft | 0 kts | 140° |
| 2026-05-01 14:30 | 52.45525 | 5.52274 | -10 ft | 8 kts | 327° |
| 2026-05-01 14:30 | 52.45584 | 5.52321 | -10 ft | 18 kts | 50° |
| 2026-05-01 14:30 | 52.45695 | 5.52518 | -9 ft | 15 kts | 51° |
| 2026-05-01 14:31 | 52.45804 | 5.52546 | -9 ft | 0 kts | 317° |
| 2026-05-01 14:32 | 52.45860 | 5.52449 | -8 ft | 20 kts | 283° |
| 2026-05-01 14:32 | 52.45795 | 5.52310 | -6 ft | 38 kts | 229° |
| 2026-05-01 14:32 | 52.45446 | 5.51591 | 208 ft | 72 kts | 228° |
| 2026-05-01 14:32 | 52.45121 | 5.50854 | 400 ft | 84 kts | 230° |
| 2026-05-01 14:33 | 52.44736 | 5.50068 | 648 ft | 96 kts | 226° |
| 2026-05-01 14:33 | 52.44295 | 5.49203 | 948 ft | 103 kts | 230° |
| 2026-05-01 14:33 | 52.43851 | 5.48153 | 1020 ft | 122 kts | 237° |
| 2026-05-01 14:33 | 52.43219 | 5.47195 | 965 ft | 128 kts | 195° |
| 2026-05-01 14:34 | 52.42372 | 5.47411 | 967 ft | 125 kts | 151° |
| 2026-05-01 14:34 | 52.41985 | 5.48655 | 959 ft | 132 kts | 97° |
| 2026-05-01 14:34 | 52.42449 | 5.49998 | 971 ft | 140 kts | 55° |
| 2026-05-01 14:34 | 52.43133 | 5.51075 | 991 ft | 138 kts | 56° |
| 2026-05-01 14:35 | 52.43663 | 5.52305 | 1029 ft | 125 kts | 91° |
| 2026-05-01 14:35 | 52.43357 | 5.53487 | 1015 ft | 114 kts | 136° |
| 2026-05-01 14:35 | 52.42854 | 5.54507 | 998 ft | 115 kts | 135° |
| 2026-05-01 14:35 | 52.42356 | 5.55540 | 987 ft | 115 kts | 135° |
| 2026-05-01 14:36 | 52.41864 | 5.56559 | 992 ft | 114 kts | 137° |
| 2026-05-01 14:36 | 52.41294 | 5.57450 | 992 ft | 112 kts | 145° |
| 2026-05-01 14:36 | 52.40694 | 5.58279 | 993 ft | 112 kts | 145° |
| 2026-05-01 14:36 | 52.40105 | 5.59101 | 994 ft | 110 kts | 144° |
| 2026-05-01 14:37 | 52.39516 | 5.59925 | 987 ft | 113 kts | 144° |
| 2026-05-01 14:37 | 52.38928 | 5.60751 | 991 ft | 110 kts | 146° |
| 2026-05-01 14:37 | 52.38369 | 5.61607 | 988 ft | 110 kts | 144° |
| 2026-05-01 14:37 | 52.37774 | 5.62348 | 1017 ft | 107 kts | 163° |
| 2026-05-01 14:38 | 52.37044 | 5.62144 | 1012 ft | 115 kts | 203° |
| 2026-05-01 14:38 | 52.36312 | 5.61597 | 1008 ft | 115 kts | 202° |
| 2026-05-01 14:38 | 52.35584 | 5.61065 | 1008 ft | 113 kts | 201° |
| 2026-05-01 14:38 | 52.34867 | 5.60536 | 1004 ft | 114 kts | 202° |
| 2026-05-01 14:39 | 52.34146 | 5.60006 | 1003 ft | 113 kts | 202° |
| 2026-05-01 14:39 | 52.33665 | 5.59655 | 1005 ft | 113 kts | 203° |
| 2026-05-01 14:39 | 52.32929 | 5.59149 | 1005 ft | 116 kts | 203° |
| 2026-05-01 14:39 | 52.32188 | 5.58677 | 1095 ft | 112 kts | 202° |
| 2026-05-01 14:40 | 52.31487 | 5.58217 | 1210 ft | 106 kts | 199° |
| 2026-05-01 14:40 | 52.30843 | 5.57704 | 1326 ft | 105 kts | 206° |
| 2026-05-01 14:40 | 52.30257 | 5.56949 | 1407 ft | 108 kts | 211° |
| 2026-05-01 14:40 | 52.29645 | 5.56152 | 1413 ft | 116 kts | 211° |
| 2026-05-01 14:41 | 52.29017 | 5.55295 | 1419 ft | 119 kts | 212° |
| 2026-05-01 14:41 | 52.28346 | 5.54456 | 1422 ft | 126 kts | 211° |
| 2026-05-01 14:41 | 52.27654 | 5.53579 | 1420 ft | 125 kts | 211° |
| 2026-05-01 14:41 | 52.26985 | 5.52707 | 1420 ft | 122 kts | 211° |
| 2026-05-01 14:42 | 52.26316 | 5.51858 | 1422 ft | 123 kts | 210° |
| 2026-05-01 14:42 | 52.25629 | 5.50980 | 1419 ft | 127 kts | 211° |
| 2026-05-01 14:42 | 52.24945 | 5.50079 | 1419 ft | 126 kts | 211° |
| 2026-05-01 14:42 | 52.24253 | 5.49170 | 1416 ft | 131 kts | 211° |
| 2026-05-01 14:43 | 52.23534 | 5.48243 | 1422 ft | 132 kts | 212° |
| 2026-05-01 14:43 | 52.22797 | 5.47316 | 1421 ft | 135 kts | 212° |
| 2026-05-01 14:43 | 52.22040 | 5.46402 | 1418 ft | 136 kts | 210° |
| 2026-05-01 14:43 | 52.21279 | 5.45484 | 1418 ft | 136 kts | 210° |
| 2026-05-01 14:44 | 52.20535 | 5.44549 | 1415 ft | 136 kts | 212° |
| 2026-05-01 14:44 | 52.19058 | 5.42740 | 1408 ft | 131 kts | 210° |
| 2026-05-01 14:44 | 52.18264 | 5.42048 | 1412 ft | 128 kts | 202° |
| 2026-05-01 14:45 | 52.17456 | 5.41415 | 1412 ft | 130 kts | 201° |
| 2026-05-01 14:45 | 52.15818 | 5.40060 | 1409 ft | 135 kts | 207° |
| 2026-05-01 14:45 | 52.15212 | 5.38867 | 1399 ft | 137 kts | 231° |
| 2026-05-01 14:46 | 52.14671 | 5.37587 | 1401 ft | 137 kts | 230° |
| 2026-05-01 14:46 | 52.13600 | 5.35055 | 1399 ft | 135 kts | 230° |
| 2026-05-01 14:46 | 52.13060 | 5.33811 | 1399 ft | 133 kts | 230° |
| 2026-05-01 14:47 | 52.12531 | 5.32587 | 1393 ft | 131 kts | 229° |
| 2026-05-01 14:47 | 52.12024 | 5.31356 | 1406 ft | 133 kts | 230° |
| 2026-05-01 14:47 | 52.11491 | 5.30092 | 1408 ft | 137 kts | 229° |
| 2026-05-01 14:48 | 52.10458 | 5.27594 | 1407 ft | 129 kts | 230° |
| 2026-05-01 14:48 | 52.09946 | 5.26380 | 1404 ft | 131 kts | 229° |
| 2026-05-01 14:48 | 52.08954 | 5.23946 | 1405 ft | 131 kts | 229° |
| 2026-05-01 14:49 | 52.07934 | 5.21464 | 1398 ft | 130 kts | 229° |
| 2026-05-01 14:49 | 52.07405 | 5.18635 | 1381 ft | 135 kts | 267° |
| 2026-05-01 14:50 | 52.07852 | 5.16372 | 1198 ft | 118 kts | 284° |
| 2026-05-01 14:50 | 52.08090 | 5.13438 | 863 ft | 107 kts | 274° |
| 2026-05-01 14:51 | 52.08220 | 5.12265 | 770 ft | 107 kts | 282° |
| 2026-05-01 14:51 | 52.09285 | 5.10591 | 626 ft | 103 kts | 290° |
| 2026-05-01 14:52 | 52.08787 | 5.09006 | 463 ft | 72 kts | 210° |
| 2026-05-01 14:52 | 52.08555 | 5.08261 | 408 ft | 72 kts | 232° |
| 2026-05-01 14:52 | 52.08200 | 5.06948 | 527 ft | 68 kts | 236° |
| 2026-05-01 14:53 | 52.07982 | 5.06138 | 650 ft | 96 kts | 235° |
| 2026-05-01 14:53 | 52.07650 | 5.05119 | 1003 ft | 100 kts | 234° |
| 2026-05-01 14:53 | 52.07336 | 5.04110 | 1395 ft | 104 kts | 234° |
| 2026-05-01 14:53 | 52.06975 | 5.02938 | 1458 ft | 132 kts | 234° |
| 2026-05-01 14:54 | 52.06480 | 5.01509 | 1376 ft | 154 kts | 234° |
| 2026-05-01 14:54 | 52.05929 | 4.99990 | 1286 ft | 157 kts | 234° |
| 2026-05-01 14:54 | 52.05368 | 4.98438 | 1188 ft | 162 kts | 234° |
| 2026-05-01 14:54 | 52.04793 | 4.96853 | 1152 ft | 160 kts | 234° |
| 2026-05-01 14:55 | 52.04243 | 4.95334 | 1277 ft | 153 kts | 234° |
| 2026-05-01 14:55 | 52.03706 | 4.93870 | 1404 ft | 149 kts | 233° |
| 2026-05-01 14:55 | 52.03196 | 4.92420 | 1498 ft | 149 kts | 235° |
| 2026-05-01 14:55 | 52.02713 | 4.90895 | 1497 ft | 154 kts | 240° |
| 2026-05-01 14:56 | 52.02249 | 4.89310 | 1507 ft | 156 kts | 240° |
| 2026-05-01 14:56 | 52.01921 | 4.87619 | 1506 ft | 159 kts | 255° |
| 2026-05-01 14:56 | 52.01720 | 4.85891 | 1508 ft | 157 kts | 255° |
| 2026-05-01 14:56 | 52.01523 | 4.84114 | 1507 ft | 158 kts | 255° |
| 2026-05-01 14:57 | 52.01327 | 4.82384 | 1405 ft | 156 kts | 255° |
| 2026-05-01 14:57 | 52.00976 | 4.79008 | 1136 ft | 149 kts | 255° |
| 2026-05-01 14:57 | 52.00795 | 4.77346 | 1014 ft | 151 kts | 256° |
| 2026-05-01 14:58 | 52.00604 | 4.75704 | 999 ft | 145 kts | 255° |
| 2026-05-01 14:58 | 52.00411 | 4.74132 | 1000 ft | 141 kts | 256° |
| 2026-05-01 14:58 | 52.00199 | 4.72576 | 992 ft | 140 kts | 253° |
| 2026-05-01 14:58 | 52.00022 | 4.71045 | 1000 ft | 135 kts | 254° |
| 2026-05-01 14:59 | 51.99896 | 4.69566 | 1046 ft | 131 kts | 260° |
| 2026-05-01 14:59 | 51.99834 | 4.68125 | 1224 ft | 125 kts | 262° |
| 2026-05-01 14:59 | 51.99904 | 4.66708 | 1323 ft | 129 kts | 272° |
| 2026-05-01 14:59 | 51.99855 | 4.65276 | 1296 ft | 128 kts | 250° |
| 2026-05-01 15:00 | 51.98643 | 4.63312 | 1234 ft | 128 kts | 220° |
| 2026-05-01 15:00 | 51.98006 | 4.62354 | 1026 ft | 125 kts | 219° |
| 2026-05-01 15:00 | 51.97411 | 4.61375 | 944 ft | 115 kts | 222° |
| 2026-05-01 15:01 | 51.96925 | 4.60373 | 793 ft | 115 kts | 231° |
| 2026-05-01 15:01 | 51.96551 | 4.59247 | 655 ft | 112 kts | 239° |
| 2026-05-01 15:01 | 51.96232 | 4.58093 | 676 ft | 115 kts | 242° |
| 2026-05-01 15:01 | 51.95913 | 4.56852 | 798 ft | 125 kts | 245° |
| 2026-05-01 15:02 | 51.95650 | 4.55469 | 799 ft | 131 kts | 247° |
| 2026-05-01 15:02 | 51.95500 | 4.54526 | 889 ft | 130 kts | 253° |
| 2026-05-01 15:02 | 51.95168 | 4.52624 | 1063 ft | 133 kts | 247° |
| 2026-05-01 15:02 | 51.94940 | 4.51221 | 1213 ft | 129 kts | 249° |
| 2026-05-01 15:03 | 51.94702 | 4.49858 | 1153 ft | 130 kts | 248° |
| 2026-05-01 15:03 | 51.94429 | 4.48434 | 1074 ft | 134 kts | 246° |
| 2026-05-01 15:03 | 51.94172 | 4.46990 | 998 ft | 124 kts | 258° |
| 2026-05-01 15:03 | 51.94411 | 4.45831 | 850 ft | 108 kts | 314° |
| 2026-05-01 15:04 | 51.94972 | 4.45162 | 737 ft | 94 kts | 322° |
| 2026-05-01 15:04 | 51.95509 | 4.44605 | 768 ft | 93 kts | 321° |
| 2026-05-01 15:04 | 51.96062 | 4.44010 | 829 ft | 98 kts | 320° |
| 2026-05-01 15:04 | 51.96578 | 4.43221 | 818 ft | 103 kts | 294° |
| 2026-05-01 15:05 | 51.96506 | 4.42212 | 822 ft | 84 kts | 229° |
| 2026-05-01 15:05 | 51.96221 | 4.41488 | 776 ft | 71 kts | 227° |
| 2026-05-01 15:05 | 51.95941 | 4.40924 | 711 ft | 61 kts | 201° |
| 2026-05-01 15:05 | 51.95502 | 4.41084 | 531 ft | 81 kts | 151° |
| 2026-05-01 15:06 | 51.95038 | 4.41679 | 333 ft | 91 kts | 123° |
| 2026-05-01 15:06 | 51.95157 | 4.42679 | 128 ft | 93 kts | 58° |
| 2026-05-01 15:06 | 51.95475 | 4.43484 | 0 ft | 74 kts | 51° |
| 2026-05-01 15:06 | 51.95700 | 4.44062 | -4 ft | 46 kts | 47° |
| 2026-05-01 15:07 | 51.95853 | 4.44437 | -7 ft | 36 kts | 56° |
| 2026-05-01 15:07 | 51.95908 | 4.44663 | -6 ft | 14 kts | 119° |
| 2026-05-01 15:07 | 51.95849 | 4.44739 | -5 ft | 9 kts | 148° |
| 2026-05-01 15:07 | 51.95772 | 4.44715 | -5 ft | 17 kts | 236° |
| 2026-05-01 15:08 | 51.95706 | 4.44559 | -5 ft | 16 kts | 244° |
| 2026-05-01 15:08 | 51.95649 | 4.44415 | -5 ft | 15 kts | 238° |
| 2026-05-01 15:08 | 51.95581 | 4.44251 | -4 ft | 22 kts | 240° |
| 2026-05-01 15:08 | 51.95486 | 4.44010 | -4 ft | 29 kts | 233° |
| 2026-05-01 15:09 | 51.95372 | 4.43712 | -5 ft | 30 kts | 235° |
| 2026-05-01 15:09 | 51.95263 | 4.43441 | -5 ft | 27 kts | 235° |
| 2026-05-01 15:09 | 51.95171 | 4.43216 | -5 ft | 13 kts | 239° |
| 2026-05-01 15:09 | 51.95166 | 4.43201 | -5 ft | 0 kts | 244° |
| 2026-05-01 15:10 | 51.95115 | 4.43056 | -4 ft | 32 kts | 239° |
| 2026-05-01 15:11 | 51.95007 | 4.42782 | -5 ft | 22 kts | 241° |
| 2026-05-01 15:11 | 51.94909 | 4.42653 | -5 ft | 0 kts | 235° |